Terminal Aerodrome Forecast
Issued by NWS Mobile, AL

Home | Current Version | Previous Version | Text Only | Print | Product List | Glossary On
Versions: 1 2 3 4 5 6 7 8 9 10 11 12 13 14 15 16 17
000
FTUS44 KMOB 192320
TAFMOB
TAF
KMOB 192320Z 2000/2024 32003KT P6SM FEW035 FEW080 BKN200
      TEMPO 2009/2013 5SM BR SCT015
     FM201600 28006KT P6SM VCSH SCT025 PROB30 2018/2024 5SM TSRA
      BKN035CB=

USA.gov is the U.S. government's official web portal to all federal, state and local government web resources and services.